createdAt,value
2019-05-09T00:01:06.550Z,21.93
2019-05-09T00:03:37.971Z,19.45
2019-05-09T00:06:09.338Z,21.62
2019-05-09T00:08:43.937Z,21.35
2019-05-09T00:11:17.303Z,20.97
2019-05-09T00:13:48.642Z,19.62
2019-05-09T00:16:19.924Z,18.45
2019-05-09T00:18:51.210Z,22.42
2019-05-09T00:21:27.347Z,21.30
2019-05-09T00:23:58.734Z,21.68
2019-05-09T00:26:30.159Z,20.05
2019-05-09T00:29:15.164Z,19.37
2019-05-09T00:31:48.158Z,22.30
2019-05-09T00:34:23.944Z,24.80
2019-05-09T00:36:55.432Z,21.62
2019-05-09T00:39:26.991Z,21.85
2019-05-09T00:41:58.553Z,20.68
2019-05-09T00:44:33.770Z,23.18
2019-05-09T00:47:10.123Z,21.90
2019-05-09T00:49:43.472Z,23.70
2019-05-09T00:52:14.994Z,24.30
2019-05-09T00:54:47.237Z,26.52
2019-05-09T00:57:33.982Z,30.68
2019-05-09T01:00:09.196Z,24.87
2019-05-09T01:02:40.648Z,26.93
2019-05-09T01:05:13.240Z,28.00
2019-05-09T01:07:44.705Z,30.08
2019-05-09T01:10:17.439Z,30.88
2019-05-09T01:12:48.891Z,31.52
2019-05-09T01:15:20.609Z,29.63
2019-05-09T01:17:53.615Z,29.18
2019-05-09T01:20:25.113Z,32.20
2019-05-09T01:22:56.437Z,28.65
2019-05-09T01:25:27.860Z,29.92
2019-05-09T01:27:59.453Z,32.67
2019-05-09T01:30:35.702Z,32.50
2019-05-09T01:33:17.791Z,150.70
2019-05-09T01:35:49.157Z,36.73
2019-05-09T01:38:23.221Z,33.53
2019-05-09T01:40:54.423Z,33.35
2019-05-09T01:43:25.789Z,35.33
2019-05-09T01:45:57.120Z,39.03
2019-05-09T01:48:28.438Z,33.53
2019-05-09T01:50:59.730Z,35.00
2019-05-09T01:53:33.451Z,35.85
2019-05-09T01:56:06.051Z,41.92
2019-05-09T01:58:37.418Z,34.13
2019-05-09T02:01:10.346Z,42.33
2019-05-09T02:03:43.667Z,39.70
2019-05-09T02:06:14.940Z,43.83
2019-05-09T02:08:46.466Z,42.33
2019-05-09T02:11:17.829Z,44.88
2019-05-09T02:13:49.089Z,40.35
2019-05-09T02:16:38.260Z,42.75
2019-05-09T02:19:13.459Z,49.15
2019-05-09T02:21:44.437Z,48.33
2019-05-09T02:24:15.815Z,43.52
2019-05-09T02:26:47.170Z,51.30
2019-05-09T02:29:18.519Z,51.58
2019-05-09T02:31:50.060Z,45.73
2019-05-09T02:34:24.525Z,41.85
2019-05-09T02:36:54.452Z,44.13
2019-05-09T02:39:25.677Z,43.13
2019-05-09T02:42:05.045Z,44.95
2019-05-09T02:44:30.162Z,45.17
2019-05-09T02:47:03.240Z,42.45
2019-05-09T02:49:34.698Z,44.05
2019-05-09T02:52:08.748Z,46.55
2019-05-09T02:54:40.611Z,45.20
2019-05-09T02:57:12.056Z,45.80
2019-05-09T02:59:50.915Z,47.17
2019-05-09T03:02:23.919Z,44.80
2019-05-09T03:04:57.914Z,50.83
2019-05-09T03:07:48.644Z,53.75
2019-05-09T03:10:22.406Z,46.28
2019-05-09T03:12:53.753Z,43.10
2019-05-09T03:15:25.300Z,42.95
2019-05-09T03:17:59.837Z,42.50
2019-05-09T03:20:39.274Z,47.45
2019-05-09T03:23:10.856Z,47.38
2019-05-09T03:25:43.121Z,45.05
2019-05-09T03:28:18.396Z,39.23
2019-05-09T03:30:51.945Z,31.50
2019-05-09T03:33:23.697Z,37.58
2019-05-09T03:35:57.300Z,28.98
2019-05-09T03:38:28.485Z,31.82
2019-05-09T03:40:59.777Z,27.75
2019-05-09T03:43:31.061Z,25.95
2019-05-09T03:46:04.043Z,29.15
2019-05-09T03:48:42.858Z,27.90
2019-05-09T03:51:14.297Z,25.97
2019-05-09T03:53:45.645Z,26.20
2019-05-09T03:56:18.611Z,33.18
2019-05-09T03:58:50.205Z,33.15
2019-05-09T04:01:24.175Z,31.60
2019-05-09T04:03:55.633Z,30.77
2019-05-09T04:06:28.209Z,29.15
2019-05-09T04:09:04.292Z,29.72
2019-05-09T04:11:38.087Z,33.00
2019-05-09T04:14:17.896Z,29.60
2019-05-09T04:16:50.194Z,29.60
2019-05-09T04:19:21.522Z,28.60
2019-05-09T04:21:52.838Z,31.12
2019-05-09T04:24:27.800Z,35.75
2019-05-09T04:27:00.450Z,36.33
2019-05-09T04:29:31.787Z,43.20
2019-05-09T04:32:05.183Z,46.28
2019-05-09T04:34:38.063Z,52.33
2019-05-09T04:37:12.132Z,49.18
2019-05-09T04:39:42.997Z,41.18
2019-05-09T04:42:18.441Z,40.92
2019-05-09T04:44:58.885Z,35.92
2019-05-09T04:47:33.870Z,33.55
2019-05-09T04:50:02.941Z,35.20
2019-05-09T04:52:34.430Z,33.05
2019-05-09T04:55:07.882Z,30.27
2019-05-09T04:57:40.771Z,29.98
2019-05-09T05:00:13.891Z,31.93
2019-05-09T05:02:48.444Z,30.95
2019-05-09T05:05:22.011Z,34.85
2019-05-09T05:07:53.845Z,23.47
2019-05-09T05:10:27.216Z,22.25
2019-05-09T05:12:58.175Z,20.75
2019-05-09T05:15:29.497Z,19.30
2019-05-09T05:18:00.861Z,17.35
2019-05-09T05:20:32.602Z,24.15
2019-05-09T05:23:08.106Z,24.87
2019-05-09T05:25:38.661Z,22.25
2019-05-09T05:28:10.005Z,23.15
2019-05-09T05:30:41.336Z,18.30
2019-05-09T05:33:30.679Z,14.23
2019-05-09T05:36:09.444Z,14.78
2019-05-09T05:38:41.390Z,12.07
2019-05-09T05:41:28.328Z,14.43
2019-05-09T05:43:59.311Z,12.50
2019-05-09T05:46:32.393Z,14.58
2019-05-09T05:49:03.831Z,11.78
2019-05-09T05:51:49.393Z,14.10
2019-05-09T05:54:23.140Z,15.18
2019-05-09T05:56:54.466Z,17.75
2019-05-09T05:59:28.344Z,13.95
2019-05-09T06:01:59.050Z,12.93
2019-05-09T06:04:30.385Z,15.28
2019-05-09T06:07:01.849Z,11.45
2019-05-09T06:09:33.469Z,12.05
2019-05-09T06:12:04.917Z,10.78
2019-05-09T06:14:37.771Z,17.23
2019-05-09T06:17:11.593Z,10.75
2019-05-09T06:19:42.980Z,12.68
2019-05-09T06:22:15.567Z,10.82
2019-05-09T06:24:47.826Z,11.97
2019-05-09T06:27:19.545Z,12.25
2019-05-09T06:29:50.919Z,13.13
2019-05-09T06:32:22.219Z,10.30
2019-05-09T06:34:53.681Z,10.15
2019-05-09T06:37:27.527Z,13.38
2019-05-09T06:39:58.506Z,8.73
2019-05-09T06:42:30.781Z,9.18
2019-05-09T06:45:03.766Z,7.90
2019-05-09T06:47:38.134Z,9.23
2019-05-09T06:50:11.390Z,9.88
2019-05-09T06:52:47.944Z,11.28
2019-05-09T06:55:19.369Z,8.53
2019-05-09T06:57:50.820Z,7.83
2019-05-09T07:00:34.166Z,6.28
2019-05-09T07:03:18.335Z,7.05
2019-05-09T07:05:53.654Z,7.33
2019-05-09T07:08:31.508Z,9.25
2019-05-09T07:11:02.893Z,11.28
2019-05-09T07:13:34.349Z,9.88
2019-05-09T07:16:05.858Z,7.15
2019-05-09T07:18:38.296Z,5.35
2019-05-09T07:21:11.572Z,5.78
2019-05-09T07:23:43.847Z,6.33
2019-05-09T07:26:17.703Z,6.35
2019-05-09T07:28:50.220Z,7.12
2019-05-09T07:31:28.409Z,8.18
2019-05-09T07:34:03.640Z,6.75
2019-05-09T07:36:35.076Z,6.50
2019-05-09T07:39:08.715Z,5.70
2019-05-09T07:41:41.953Z,5.45
2019-05-09T07:44:13.452Z,4.00
2019-05-09T07:46:52.602Z,4.67
2019-05-09T07:49:24.055Z,3.95
2019-05-09T07:51:59.043Z,3.10
2019-05-09T07:54:29.825Z,3.17
2019-05-09T07:57:01.378Z,3.02
2019-05-09T07:59:32.822Z,4.40
2019-05-09T08:02:04.390Z,3.35
2019-05-09T08:04:38.610Z,4.03
2019-05-09T08:07:10.397Z,2.35
2019-05-09T08:09:42.072Z,5.40
2019-05-09T08:12:13.773Z,3.33
2019-05-09T08:14:55.334Z,6.62
2019-05-09T08:17:23.560Z,2.98
2019-05-09T08:19:58.318Z,3.15
2019-05-09T08:22:32.283Z,3.10
2019-05-09T08:25:02.444Z,4.25
2019-05-09T08:27:33.980Z,2.62
2019-05-09T08:30:08.038Z,2.40
2019-05-09T08:32:39.661Z,2.90
2019-05-09T08:35:11.211Z,3.05
2019-05-09T08:37:44.148Z,6.30
2019-05-09T08:40:18.348Z,128.45
2019-05-09T08:42:51.492Z,3.67
2019-05-09T08:45:27.590Z,3.42
2019-05-09T08:47:57.740Z,5.92
2019-05-09T08:50:39.131Z,6.75
2019-05-09T08:53:10.692Z,5.50
2019-05-09T08:55:43.997Z,4.90
2019-05-09T08:58:19.661Z,4.20
2019-05-09T09:00:50.111Z,4.72
2019-05-09T09:03:21.541Z,5.60
2019-05-09T09:05:53.170Z,6.17
2019-05-09T09:08:25.275Z,5.55
2019-05-09T09:10:57.797Z,3.92
2019-05-09T09:13:29.501Z,3.50
2019-05-09T09:16:14.454Z,4.67
2019-05-09T09:18:34.097Z,4.45
2019-05-09T09:21:07.844Z,3.47
2019-05-09T09:23:46.605Z,2.95
2019-05-09T09:26:12.140Z,2.40
2019-05-09T09:28:43.528Z,3.55
2019-05-09T09:31:15.011Z,3.40
2019-05-09T09:33:48.061Z,2.72
2019-05-09T09:36:20.014Z,3.33
2019-05-09T09:38:51.888Z,3.45
2019-05-09T09:41:23.327Z,4.10
2019-05-09T09:43:54.910Z,3.85
2019-05-09T09:46:28.374Z,3.42
2019-05-09T09:48:59.507Z,2.80
2019-05-09T09:51:30.939Z,4.05
2019-05-09T09:54:02.209Z,4.75
2019-05-09T09:56:33.577Z,4.37
2019-05-09T09:59:21.790Z,3.58
2019-05-09T10:01:58.464Z,3.77
2019-05-09T10:04:31.108Z,6.95
2019-05-09T10:07:02.595Z,3.10
2019-05-09T10:09:34.015Z,5.60
2019-05-09T10:12:20.808Z,4.35
2019-05-09T10:14:57.611Z,3.50
2019-05-09T10:17:35.798Z,4.37
2019-05-09T10:20:18.149Z,3.98
2019-05-09T10:22:58.712Z,3.08
2019-05-09T10:25:22.859Z,4.60
2019-05-09T10:27:54.433Z,3.75
2019-05-09T10:30:34.331Z,3.65
2019-05-09T10:33:05.884Z,4.53
2019-05-09T10:35:39.208Z,2.95
2019-05-09T10:38:11.255Z,4.10
2019-05-09T10:40:42.565Z,3.45
2019-05-09T10:43:34.723Z,2.05
2019-05-09T10:45:57.847Z,3.65
2019-05-09T10:48:29.851Z,2.30
2019-05-09T10:51:05.488Z,2.10
2019-05-09T10:53:35.742Z,3.60
2019-05-09T10:56:08.925Z,1.90
2019-05-09T10:58:40.639Z,3.00
2019-05-09T11:01:12.072Z,1.87
2019-05-09T11:03:43.507Z,3.72
2019-05-09T11:06:18.313Z,4.28
2019-05-09T11:08:49.228Z,2.80
2019-05-09T11:11:20.554Z,2.22
2019-05-09T11:13:51.936Z,1.65
2019-05-09T11:16:23.240Z,2.00
2019-05-09T11:18:54.558Z,3.10
2019-05-09T11:21:28.555Z,2.55
2019-05-09T11:23:59.007Z,3.10
2019-05-09T11:26:30.464Z,3.15
2019-05-09T11:29:01.899Z,1.82
2019-05-09T11:31:33.225Z,3.35
2019-05-09T11:34:08.605Z,5.12
2019-05-09T11:36:39.042Z,2.77
2019-05-09T11:39:11.089Z,2.80
2019-05-09T11:41:42.450Z,2.60
2019-05-09T11:44:14.034Z,2.90
2019-05-09T11:46:47.726Z,3.15
2019-05-09T11:49:18.648Z,5.50
2019-05-09T11:51:49.919Z,3.80
2019-05-09T11:54:21.267Z,4.65
2019-05-09T11:56:52.632Z,3.90
2019-05-09T11:59:24.044Z,4.30
2019-05-09T12:01:55.435Z,4.00
2019-05-09T12:04:28.178Z,4.33
2019-05-09T12:07:00.751Z,7.83
2019-05-09T12:09:32.080Z,4.30
2019-05-09T12:12:03.586Z,4.90
2019-05-09T12:14:34.951Z,4.30
2019-05-09T12:17:08.404Z,4.42
2019-05-09T12:19:39.393Z,4.00
2019-05-09T12:22:10.876Z,20.25
2019-05-09T12:24:42.358Z,4.50
2019-05-09T12:27:13.815Z,4.12
2019-05-09T12:29:45.055Z,3.90
2019-05-09T12:32:18.705Z,5.20
2019-05-09T12:34:49.531Z,4.78
2019-05-09T12:37:20.956Z,4.45
2019-05-09T12:39:52.299Z,4.65
2019-05-09T12:42:23.743Z,4.92
2019-05-09T12:44:58.755Z,8.10
2019-05-09T12:47:29.407Z,12.40
2019-05-09T12:50:02.892Z,8.38
2019-05-09T12:52:33.969Z,7.37
2019-05-09T12:55:08.167Z,7.80
2019-05-09T12:57:39.523Z,7.40
2019-05-09T13:00:11.252Z,5.17
2019-05-09T13:02:42.654Z,6.03
2019-05-09T13:05:14.153Z,8.93
2019-05-09T13:07:47.894Z,6.58
2019-05-09T13:10:19.570Z,5.85
2019-05-09T13:12:51.411Z,6.37
2019-05-09T13:15:24.628Z,4.17
2019-05-09T13:17:57.964Z,4.72
2019-05-09T13:20:29.140Z,4.58
2019-05-09T13:23:00.504Z,7.10
2019-05-09T13:25:31.951Z,5.17
2019-05-09T13:28:04.420Z,4.50
2019-05-09T13:30:37.953Z,3.20
2019-05-09T13:33:10.981Z,4.62
2019-05-09T13:35:42.715Z,7.83
2019-05-09T13:38:14.160Z,8.00
2019-05-09T13:40:53.016Z,8.45
2019-05-09T13:43:20.585Z,11.28
2019-05-09T13:45:52.202Z,11.40
2019-05-09T13:48:32.612Z,19.20
2019-05-09T13:50:57.793Z,15.88
2019-05-09T13:53:30.381Z,17.90
2019-05-09T13:56:01.766Z,18.70
2019-05-09T13:58:33.228Z,20.70
2019-05-09T14:01:07.640Z,23.95
2019-05-09T14:03:38.898Z,26.62
2019-05-09T14:06:10.515Z,27.80
2019-05-09T14:08:41.897Z,36.77
2019-05-09T14:11:13.593Z,48.02
2019-05-09T14:13:44.988Z,52.83
2019-05-09T14:16:21.815Z,56.42
2019-05-09T14:18:49.704Z,61.98
2019-05-09T14:21:24.600Z,64.67
2019-05-09T14:24:10.005Z,72.00
2019-05-09T14:26:28.186Z,73.80
2019-05-09T14:28:59.700Z,77.65
2019-05-09T14:31:32.522Z,70.10
2019-05-09T14:34:04.100Z,72.45
2019-05-09T14:36:39.123Z,69.03
2019-05-09T14:39:09.534Z,40.83
2019-05-09T14:41:41.507Z,33.05
2019-05-09T14:44:12.781Z,26.05
2019-05-09T14:46:48.099Z,18.87
2019-05-09T14:49:18.747Z,14.07
2019-05-09T14:51:50.305Z,12.60
2019-05-09T14:54:21.806Z,8.78
2019-05-09T14:56:53.486Z,7.37
2019-05-09T14:59:24.842Z,8.65
2019-05-09T15:01:59.148Z,6.62
2019-05-09T15:04:29.732Z,4.50
2019-05-09T15:07:01.317Z,4.58
2019-05-09T15:09:32.658Z,5.25
2019-05-09T15:12:04.050Z,5.65
2019-05-09T15:14:35.521Z,3.72
2019-05-09T15:17:08.801Z,3.70
2019-05-09T15:19:55.337Z,5.10
2019-05-09T15:22:14.701Z,4.60
2019-05-09T15:24:47.737Z,5.92
2019-05-09T15:27:19.336Z,6.25
2019-05-09T15:29:51.169Z,4.80
2019-05-09T15:32:22.558Z,4.72
2019-05-09T15:34:57.556Z,4.58
2019-05-09T15:37:28.847Z,6.47
2019-05-09T15:40:00.205Z,3.90
2019-05-09T15:42:31.712Z,4.35
2019-05-09T15:45:03.193Z,4.20
2019-05-09T15:47:38.040Z,3.87
2019-05-09T15:50:18.780Z,4.55
2019-05-09T15:52:42.867Z,4.53
2019-05-09T15:55:14.309Z,4.15
2019-05-09T15:57:45.789Z,6.15
2019-05-09T16:00:19.019Z,6.00
2019-05-09T16:02:50.434Z,33.33
2019-05-09T16:05:23.532Z,4.40
2019-05-09T16:07:55.850Z,6.67
2019-05-09T16:10:28.358Z,4.72
2019-05-09T16:12:59.874Z,3.25
2019-05-09T16:15:31.333Z,4.00
2019-05-09T16:18:02.630Z,5.92
2019-05-09T16:20:37.349Z,5.55
2019-05-09T16:23:08.385Z,6.30
2019-05-09T16:25:39.929Z,4.90
2019-05-09T16:28:13.533Z,4.25
2019-05-09T16:30:44.951Z,4.85
2019-05-09T16:33:18.256Z,6.97
2019-05-09T16:35:52.581Z,4.87
2019-05-09T16:38:22.424Z,5.15
2019-05-09T16:40:53.783Z,4.17
2019-05-09T16:43:25.230Z,4.85
2019-05-09T16:45:58.128Z,4.10
2019-05-09T16:48:30.670Z,6.00
2019-05-09T16:51:04.341Z,5.12
2019-05-09T16:53:36.104Z,5.00
2019-05-09T16:56:08.198Z,4.62
2019-05-09T16:58:39.812Z,4.87
2019-05-09T17:01:12.794Z,6.08
2019-05-09T17:03:44.378Z,6.37
2019-05-09T17:06:18.265Z,7.15
2019-05-09T17:08:48.892Z,10.08
2019-05-09T17:11:20.258Z,6.33
2019-05-09T17:13:51.786Z,7.00
2019-05-09T17:16:23.132Z,5.53
2019-05-09T17:18:54.583Z,44.85
2019-05-09T17:21:42.923Z,5.50
2019-05-09T17:24:19.187Z,4.87
2019-05-09T17:26:50.637Z,5.58
2019-05-09T17:29:22.099Z,5.50
2019-05-09T17:31:53.440Z,5.10
2019-05-09T17:34:24.986Z,6.45
2019-05-09T17:36:56.436Z,8.65
2019-05-09T17:39:27.997Z,7.65
2019-05-09T17:41:59.548Z,8.73
2019-05-09T17:44:30.961Z,9.80
2019-05-09T17:47:05.222Z,9.70
2019-05-09T17:49:37.563Z,8.35
2019-05-09T17:52:10.053Z,8.90
2019-05-09T17:54:42.500Z,9.95
2019-05-09T17:57:14.976Z,9.88
2019-05-09T17:59:48.823Z,10.05
2019-05-09T18:02:19.544Z,9.38
2019-05-09T18:04:50.911Z,11.68
2019-05-09T18:07:22.709Z,10.20
2019-05-09T18:09:54.155Z,11.33
2019-05-09T18:12:27.588Z,10.80
2019-05-09T18:14:58.764Z,8.90
2019-05-09T18:17:32.391Z,9.40
2019-05-09T18:20:05.046Z,7.90
2019-05-09T18:22:36.441Z,8.43
2019-05-09T18:25:10.327Z,8.05
2019-05-09T18:27:41.796Z,5.30
2019-05-09T18:30:13.903Z,7.22
2019-05-09T18:32:52.942Z,6.22
2019-05-09T18:35:27.825Z,7.17
2019-05-09T18:38:04.744Z,5.72
2019-05-09T18:40:36.225Z,8.43
2019-05-09T18:43:07.966Z,5.70
2019-05-09T18:45:39.434Z,6.87
2019-05-09T18:48:12.675Z,4.95
2019-05-09T18:50:46.152Z,6.22
2019-05-09T18:53:18.570Z,4.60
2019-05-09T18:55:49.932Z,6.08
2019-05-09T18:58:25.345Z,4.28
2019-05-09T19:00:58.422Z,5.17
2019-05-09T19:03:30.319Z,6.17
2019-05-09T19:06:01.987Z,5.00
2019-05-09T19:08:34.630Z,4.22
2019-05-09T19:11:06.137Z,4.10
2019-05-09T19:13:40.032Z,4.97
2019-05-09T19:16:16.481Z,4.60
2019-05-09T19:18:54.667Z,4.20
2019-05-09T19:21:30.022Z,6.42
2019-05-09T19:24:01.590Z,8.63
2019-05-09T19:26:35.891Z,4.17
2019-05-09T19:29:08.585Z,5.50
2019-05-09T19:31:40.251Z,6.50
2019-05-09T19:34:11.799Z,5.85
2019-05-09T19:36:44.015Z,7.83
2019-05-09T19:39:19.879Z,4.70
2019-05-09T19:41:51.361Z,4.37
2019-05-09T19:44:22.812Z,4.20
2019-05-09T19:46:54.151Z,4.80
2019-05-09T19:49:36.300Z,4.70
2019-05-09T19:52:07.689Z,4.08
2019-05-09T19:54:39.157Z,7.72
2019-05-09T19:57:10.541Z,6.17
2019-05-09T19:59:41.861Z,6.00
2019-05-09T20:02:13.247Z,4.97
2019-05-09T20:04:45.055Z,5.30
2019-05-09T20:07:16.491Z,5.95
2019-05-09T20:09:51.685Z,8.93
2019-05-09T20:12:31.541Z,6.08
2019-05-09T20:15:02.836Z,6.17
2019-05-09T20:17:35.329Z,5.53
2019-05-09T20:20:07.842Z,6.10
2019-05-09T20:22:52.011Z,7.42
2019-05-09T20:25:12.557Z,8.13
2019-05-09T20:27:44.158Z,7.28
2019-05-09T20:30:20.921Z,8.90
2019-05-09T20:32:52.697Z,6.35
2019-05-09T20:35:24.221Z,6.15
2019-05-09T20:37:55.929Z,6.05
2019-05-09T20:40:31.282Z,7.33
2019-05-09T20:43:02.867Z,6.15
2019-05-09T20:45:35.192Z,5.55
2019-05-09T20:48:06.843Z,5.28
2019-05-09T20:50:38.540Z,8.63
2019-05-09T20:53:10.278Z,7.30
2019-05-09T20:55:41.902Z,5.62
2019-05-09T20:58:13.480Z,7.50
2019-05-09T21:00:45.131Z,8.30
2019-05-09T21:03:16.669Z,9.13
2019-05-09T21:05:48.371Z,11.93
2019-05-09T21:08:19.843Z,14.80
2019-05-09T21:10:52.405Z,15.63
2019-05-09T21:13:23.951Z,18.65
2019-05-09T21:15:55.737Z,19.17
2019-05-09T21:18:27.492Z,20.85
2019-05-09T21:21:00.346Z,20.90
2019-05-09T21:23:33.288Z,20.88
2019-05-09T21:26:04.913Z,22.20
2019-05-09T21:28:36.575Z,22.45
2019-05-09T21:31:09.430Z,26.00
2019-05-09T21:33:42.124Z,25.15
2019-05-09T21:36:13.544Z,18.87
2019-05-09T21:38:44.923Z,22.02
2019-05-09T21:41:16.373Z,20.05
2019-05-09T21:43:47.767Z,20.48
2019-05-09T21:46:19.217Z,18.23
2019-05-09T21:48:50.809Z,17.35
2019-05-09T21:51:24.433Z,23.73
2019-05-09T21:53:55.818Z,23.05
2019-05-09T21:56:27.199Z,20.45
2019-05-09T21:58:58.575Z,16.23
2019-05-09T22:01:31.295Z,16.10
2019-05-09T22:04:03.371Z,15.28
2019-05-09T22:06:34.842Z,20.00
2019-05-09T22:09:09.044Z,17.42
2019-05-09T22:11:41.614Z,12.25
2019-05-09T22:14:12.882Z,12.85
2019-05-09T22:16:44.555Z,14.23
2019-05-09T22:19:15.910Z,12.70
2019-05-09T22:21:48.353Z,10.03
2019-05-09T22:24:19.787Z,11.45
2019-05-09T22:26:52.115Z,10.48
2019-05-09T22:29:23.483Z,9.60
2019-05-09T22:31:54.900Z,8.93
2019-05-09T22:34:26.250Z,11.57
2019-05-09T22:36:59.109Z,8.03
2019-05-09T22:39:30.493Z,11.30
2019-05-09T22:42:02.222Z,8.38
2019-05-09T22:44:33.564Z,6.90
2019-05-09T22:47:04.921Z,6.67
2019-05-09T22:49:36.493Z,6.00
2019-05-09T22:52:07.796Z,6.58
2019-05-09T22:54:39.176Z,6.50
2019-05-09T22:57:10.547Z,7.67
2019-05-09T22:59:41.985Z,5.08
2019-05-09T23:02:13.347Z,5.95
2019-05-09T23:04:44.687Z,4.47
2019-05-09T23:07:16.051Z,4.50
2019-05-09T23:09:47.446Z,5.55
2019-05-09T23:12:18.963Z,4.85
2019-05-09T23:14:51.884Z,5.30
2019-05-09T23:17:23.204Z,6.12
2019-05-09T23:19:54.716Z,6.45
2019-05-09T23:22:27.606Z,7.40
2019-05-09T23:24:58.926Z,6.53
2019-05-09T23:27:30.251Z,8.13
2019-05-09T23:30:03.595Z,9.90
2019-05-09T23:32:37.633Z,7.90
2019-05-09T23:35:09.224Z,7.40
2019-05-09T23:37:41.583Z,8.88
2019-05-09T23:40:12.983Z,10.38
2019-05-09T23:42:44.345Z,8.93
2019-05-09T23:45:15.712Z,12.68
2019-05-09T23:47:47.054Z,8.10
2019-05-09T23:50:18.397Z,8.60
2019-05-09T23:52:49.705Z,8.88
2019-05-09T23:55:38.913Z,10.00
2019-05-09T23:58:28.149Z,9.53
